createdAt,value
2019-02-08T00:03:38.279Z,91.00
2019-02-08T00:09:09.224Z,91.00
2019-02-08T00:14:38.616Z,91.00
2019-02-08T00:20:14.767Z,91.00
2019-02-08T00:25:44.242Z,91.00
2019-02-08T00:31:13.692Z,91.10
2019-02-08T00:36:43.430Z,91.10
2019-02-08T00:42:12.770Z,91.10
2019-02-08T00:47:42.290Z,91.10
2019-02-08T00:53:13.707Z,91.20
2019-02-08T00:58:43.170Z,91.20
2019-02-08T01:04:12.613Z,91.20
2019-02-08T01:09:42.017Z,91.30
2019-02-08T01:15:14.565Z,91.30
2019-02-08T01:20:44.306Z,91.20
2019-02-08T01:26:13.624Z,91.20
2019-02-08T01:31:42.994Z,91.10
2019-02-08T01:37:12.451Z,91.10
2019-02-08T01:42:42.928Z,91.10
2019-02-08T01:48:12.303Z,91.10
2019-02-08T01:53:48.343Z,91.10
2019-02-08T01:59:12.896Z,91.10
2019-02-08T02:04:42.281Z,91.10
2019-02-08T02:10:22.439Z,91.20
2019-02-08T02:15:53.429Z,91.30
2019-02-08T02:21:23.000Z,91.30
2019-02-08T02:26:52.535Z,91.30
2019-02-08T02:32:21.952Z,91.30
2019-02-08T02:37:51.494Z,91.20
2019-02-08T02:43:20.934Z,91.10
2019-02-08T02:48:50.308Z,91.10
2019-02-08T02:54:22.024Z,91.20
2019-02-08T02:59:51.513Z,91.10
2019-02-08T03:05:20.893Z,91.10
2019-02-08T03:10:50.203Z,91.10
2019-02-08T03:16:19.570Z,91.00
2019-02-08T03:21:48.991Z,91.00
2019-02-08T03:27:18.477Z,90.90
2019-02-08T03:32:48.123Z,90.90
2019-02-08T03:38:17.517Z,90.80
2019-02-08T03:43:46.866Z,90.80
2019-02-08T03:49:16.212Z,90.80
2019-02-08T03:54:45.787Z,90.70
2019-02-08T04:00:34.388Z,90.80
2019-02-08T04:06:04.704Z,90.70
2019-02-08T04:11:34.166Z,90.70
2019-02-08T04:17:03.499Z,90.70
2019-02-08T04:22:33.080Z,90.60
2019-02-08T04:28:02.901Z,90.60
2019-02-08T04:33:32.736Z,90.50
2019-02-08T04:39:02.204Z,90.50
2019-02-08T04:44:31.829Z,90.50
2019-02-08T04:50:01.201Z,90.40
2019-02-08T04:55:30.660Z,90.40
2019-02-08T05:01:00.120Z,90.40
2019-02-08T05:06:29.947Z,90.40
2019-02-08T05:11:59.471Z,90.40
2019-02-08T05:17:29.024Z,90.30
2019-02-08T05:22:59.850Z,90.30
2019-02-08T05:28:29.595Z,90.30
2019-02-08T05:34:06.270Z,90.30
2019-02-08T05:39:35.675Z,90.30
2019-02-08T05:45:12.675Z,90.40
2019-02-08T05:50:42.097Z,90.40
2019-02-08T05:56:11.617Z,90.40
2019-02-08T06:01:41.278Z,90.40
2019-02-08T06:07:10.621Z,90.40
2019-02-08T06:12:40.066Z,90.60
2019-02-08T06:18:10.805Z,90.30
2019-02-08T06:23:40.177Z,90.30
2019-02-08T06:29:09.658Z,90.20
2019-02-08T06:34:38.994Z,90.20
2019-02-08T06:40:15.821Z,90.10
2019-02-08T06:45:45.215Z,90.20
2019-02-08T06:51:14.618Z,90.20
2019-02-08T06:56:48.628Z,90.10
2019-02-08T07:02:22.835Z,90.10
2019-02-08T07:07:55.127Z,90.10
2019-02-08T07:13:45.669Z,90.10
2019-02-08T07:19:33.094Z,90.00
2019-02-08T07:25:10.421Z,89.80
2019-02-08T07:30:58.963Z,89.80
2019-02-08T07:36:30.395Z,89.90
2019-02-08T07:42:01.783Z,90.00
2019-02-08T07:47:35.723Z,89.60
2019-02-08T07:53:13.623Z,89.60
2019-02-08T07:58:56.893Z,89.40
2019-02-08T08:04:41.663Z,89.20
2019-02-08T08:10:21.851Z,89.00
2019-02-08T08:15:53.220Z,88.90
2019-02-08T08:21:30.218Z,88.60
2019-02-08T08:27:03.986Z,88.10
2019-02-08T08:32:37.575Z,87.90
2019-02-08T08:38:38.901Z,87.50
2019-02-08T08:44:32.622Z,86.90
2019-02-08T08:50:32.520Z,86.30
2019-02-08T08:56:18.656Z,85.60
2019-02-08T09:02:07.486Z,85.20
2019-02-08T09:07:53.663Z,84.40
2019-02-08T09:13:38.912Z,83.70
2019-02-08T09:19:31.299Z,82.50
2019-02-08T09:25:41.574Z,81.50
2019-02-08T09:31:34.828Z,80.90
2019-02-08T09:37:21.358Z,80.50
2019-02-08T09:42:58.855Z,81.10
2019-02-08T09:49:10.502Z,79.40
2019-02-08T09:55:08.101Z,78.30
2019-02-08T10:01:32.087Z,76.80
2019-02-08T10:07:06.088Z,76.20
2019-02-08T10:12:56.740Z,74.80
2019-02-08T10:19:13.104Z,73.40
2019-02-08T10:25:21.653Z,72.50
2019-02-08T10:31:37.951Z,72.10
2019-02-08T10:37:53.245Z,71.90
2019-02-08T10:43:48.003Z,70.40
2019-02-08T10:49:47.251Z,69.70
2019-02-08T10:56:15.003Z,68.90
2019-02-08T11:02:01.029Z,68.30
2019-02-08T11:08:17.620Z,68.30
2019-02-08T11:14:35.001Z,66.70
2019-02-08T11:20:07.183Z,66.60
2019-02-08T11:25:36.662Z,66.20
2019-02-08T11:31:06.347Z,65.70
2019-02-08T11:36:35.963Z,64.30
2019-02-08T11:42:05.530Z,63.10
2019-02-08T11:47:35.084Z,62.60
2019-02-08T11:53:04.579Z,61.50
2019-02-08T11:58:34.185Z,61.30
2019-02-08T12:04:03.812Z,61.30
2019-02-08T12:09:33.809Z,60.60
2019-02-08T12:15:03.784Z,60.70
2019-02-08T12:20:33.287Z,60.00
2019-02-08T12:26:02.792Z,59.80
2019-02-08T12:31:32.341Z,59.10
2019-02-08T12:37:01.857Z,59.10
2019-02-08T12:42:31.317Z,58.70
2019-02-08T12:48:01.046Z,57.50
2019-02-08T12:53:30.902Z,57.60
2019-02-08T12:59:00.206Z,57.60
2019-02-08T13:04:29.843Z,57.10
2019-02-08T13:09:59.615Z,57.10
2019-02-08T13:15:29.280Z,56.90
2019-02-08T13:20:59.108Z,56.20
2019-02-08T13:26:29.153Z,55.70
2019-02-08T13:31:58.896Z,55.40
2019-02-08T13:37:28.547Z,54.60
2019-02-08T13:42:58.145Z,53.80
2019-02-08T13:48:27.784Z,53.40
2019-02-08T13:53:57.604Z,52.70
2019-02-08T13:59:27.328Z,51.10
2019-02-08T14:04:57.266Z,50.40
2019-02-08T14:10:27.360Z,48.90
2019-02-08T14:15:57.245Z,47.50
2019-02-08T14:21:27.074Z,46.50
2019-02-08T14:26:56.687Z,46.00
2019-02-08T14:32:26.538Z,45.80
2019-02-08T14:37:58.621Z,46.20
2019-02-08T14:43:28.457Z,46.10
2019-02-08T14:48:58.395Z,45.00
2019-02-08T14:54:28.224Z,44.10
2019-02-08T14:59:57.849Z,43.10
2019-02-08T15:05:28.078Z,44.00
2019-02-08T15:10:57.912Z,44.50
2019-02-08T15:16:27.951Z,44.90
2019-02-08T15:21:57.764Z,45.60
2019-02-08T15:27:27.507Z,46.90
2019-02-08T15:32:57.548Z,47.80
2019-02-08T15:38:27.273Z,48.50
2019-02-08T15:43:57.965Z,49.30
2019-02-08T15:49:27.560Z,49.90
2019-02-08T15:54:57.437Z,51.40
2019-02-08T16:00:30.745Z,51.90
2019-02-08T16:06:02.516Z,52.50
2019-02-08T16:11:34.628Z,52.90
2019-02-08T16:17:04.377Z,53.80
2019-02-08T16:22:33.689Z,54.50
2019-02-08T16:28:03.198Z,54.90
2019-02-08T16:33:33.159Z,55.30
2019-02-08T16:39:02.985Z,55.30
2019-02-08T16:44:32.422Z,55.80
2019-02-08T16:50:05.139Z,55.90
2019-02-08T16:55:34.627Z,56.20
2019-02-08T17:01:04.543Z,56.40
2019-02-08T17:06:35.514Z,56.60
2019-02-08T17:12:07.546Z,56.90
2019-02-08T17:17:36.993Z,57.30
2019-02-08T17:23:07.791Z,57.50
2019-02-08T17:28:38.178Z,58.00
2019-02-08T17:34:07.871Z,58.20
2019-02-08T17:39:37.409Z,58.50
2019-02-08T17:45:14.002Z,58.90
2019-02-08T17:50:44.637Z,59.20
2019-02-08T17:56:14.157Z,59.30
2019-02-08T18:01:43.706Z,59.70
2019-02-08T18:07:13.377Z,59.90
2019-02-08T18:12:43.072Z,60.30
2019-02-08T18:18:16.755Z,60.60
2019-02-08T18:23:47.528Z,61.00
2019-02-08T18:29:16.875Z,61.20
2019-02-08T18:34:46.393Z,61.50
2019-02-08T18:40:26.443Z,61.70
2019-02-08T18:45:56.269Z,62.00
2019-02-08T18:51:26.097Z,62.20
2019-02-08T18:56:55.720Z,62.50
2019-02-08T19:02:25.450Z,62.70
2019-02-08T19:07:55.182Z,63.00
2019-02-08T19:13:25.420Z,63.30
2019-02-08T19:18:56.069Z,63.50
2019-02-08T19:24:25.796Z,63.80
2019-02-08T19:29:55.535Z,64.10
2019-02-08T19:35:25.351Z,64.20
2019-02-08T19:40:55.194Z,64.30
2019-02-08T19:46:24.883Z,64.50
2019-02-08T19:51:56.811Z,64.80
2019-02-08T19:57:29.915Z,64.90
2019-02-08T20:03:01.917Z,65.30
2019-02-08T20:08:31.771Z,65.50
2019-02-08T20:14:01.082Z,65.60
2019-02-08T20:19:31.016Z,65.90
2019-02-08T20:25:01.062Z,66.10
2019-02-08T20:30:32.960Z,66.30
2019-02-08T20:36:02.801Z,66.40
2019-02-08T20:41:32.963Z,66.60
2019-02-08T20:47:02.636Z,67.00
2019-02-08T20:52:32.117Z,67.20
2019-02-08T20:58:01.883Z,67.50
2019-02-08T21:03:31.585Z,67.50
2019-02-08T21:09:01.257Z,67.70
2019-02-08T21:14:31.765Z,67.90
2019-02-08T21:20:01.673Z,68.10
2019-02-08T21:25:37.877Z,68.10
2019-02-08T21:31:07.771Z,68.30
2019-02-08T21:36:38.931Z,68.30
2019-02-08T21:42:08.789Z,68.50
2019-02-08T21:47:38.245Z,68.50
2019-02-08T21:53:07.870Z,68.70
2019-02-08T21:58:37.445Z,68.90
2019-02-08T22:04:07.084Z,69.00
2019-02-08T22:09:36.579Z,69.00
2019-02-08T22:15:13.627Z,69.00
2019-02-08T22:20:43.134Z,69.00
2019-02-08T22:26:12.743Z,69.10
2019-02-08T22:31:43.173Z,69.10
2019-02-08T22:37:12.684Z,69.30
2019-02-08T22:42:42.441Z,69.40
2019-02-08T22:48:12.170Z,69.40
2019-02-08T22:53:45.098Z,69.50
2019-02-08T22:59:21.680Z,69.50
2019-02-08T23:04:45.590Z,69.70
2019-02-08T23:10:14.985Z,69.90
2019-02-08T23:15:44.622Z,69.80
2019-02-08T23:21:15.259Z,69.90
2019-02-08T23:26:45.332Z,70.00
2019-02-08T23:32:14.886Z,70.10
2019-02-08T23:37:45.529Z,70.20
2019-02-08T23:43:15.980Z,70.10
2019-02-08T23:48:45.558Z,71.90
2019-02-08T23:54:14.957Z,70.90
2019-02-08T23:59:44.977Z,70.60
